sensor_id;sensor_type;location;lat;lon;timestamp;pressure;altitude;pressure_sealevel;temperature;humidity
8366;BME280;4220;42.502;24.188;2023-05-24T00:02:12;95038.41;;;13.34;100.00
8366;BME280;4220;42.502;24.188;2023-05-24T00:04:39;95046.72;;;13.21;100.00
8366;BME280;4220;42.502;24.188;2023-05-24T00:07:07;95053.94;;;13.09;100.00
8366;BME280;4220;42.502;24.188;2023-05-24T00:09:33;95050.25;;;12.98;100.00
8366;BME280;4220;42.502;24.188;2023-05-24T00:12:02;95056.13;;;12.61;100.00
8366;BME280;4220;42.502;24.188;2023-05-24T00:14:29;95036.72;;;12.48;100.00
8366;BME280;4220;42.502;24.188;2023-05-24T00:16:56;95039.59;;;12.59;100.00
8366;BME280;4220;42.502;24.188;2023-05-24T00:19:23;95031.88;;;12.45;100.00
8366;BME280;4220;42.502;24.188;2023-05-24T00:21:50;94983.97;;;12.06;100.00
8366;BME280;4220;42.502;24.188;2023-05-24T00:24:17;95041.03;;;12.38;100.00
8366;BME280;4220;42.502;24.188;2023-05-24T00:26:44;95045.97;;;12.58;100.00
8366;BME280;4220;42.502;24.188;2023-05-24T00:29:12;95040.06;;;12.56;100.00
8366;BME280;4220;42.502;24.188;2023-05-24T00:31:39;95034.16;;;12.54;100.00
8366;BME280;4220;42.502;24.188;2023-05-24T00:34:06;95044.34;;;12.57;100.00
8366;BME280;4220;42.502;24.188;2023-05-24T00:36:33;95039.38;;;12.48;100.00
8366;BME280;4220;42.502;24.188;2023-05-24T00:39:02;95024.28;;;12.26;100.00
8366;BME280;4220;42.502;24.188;2023-05-24T00:41:29;95030.84;;;12.35;100.00
8366;BME280;4220;42.502;24.188;2023-05-24T00:43:56;95011.88;;;12.31;100.00
8366;BME280;4220;42.502;24.188;2023-05-24T00:46:27;95022.97;;;12.40;100.00
8366;BME280;4220;42.502;24.188;2023-05-24T00:48:55;95026.50;;;12.06;100.00
8366;BME280;4220;42.502;24.188;2023-05-24T00:51:23;95034.34;;;12.01;100.00
8366;BME280;4220;42.502;24.188;2023-05-24T00:53:52;95029.47;;;11.98;100.00
8366;BME280;4220;42.502;24.188;2023-05-24T00:56:20;95025.66;;;12.05;100.00
8366;BME280;4220;42.502;24.188;2023-05-24T00:58:47;94990.78;;;11.90;100.00
8366;BME280;4220;42.502;24.188;2023-05-24T01:01:15;95029.59;;;12.14;100.00
8366;BME280;4220;42.502;24.188;2023-05-24T01:03:43;95025.91;;;12.04;100.00
8366;BME280;4220;42.502;24.188;2023-05-24T01:06:12;95021.16;;;11.94;100.00
8366;BME280;4220;42.502;24.188;2023-05-24T01:08:55;95028.09;;;11.95;100.00
8366;BME280;4220;42.502;24.188;2023-05-24T01:11:34;95027.63;;;12.10;100.00
8366;BME280;4220;42.502;24.188;2023-05-24T01:14:13;95023.69;;;12.12;100.00
8366;BME280;4220;42.502;24.188;2023-05-24T01:16:50;95020.59;;;12.15;100.00
8366;BME280;4220;42.502;24.188;2023-05-24T01:19:53;95020.81;;;12.02;100.00
8366;BME280;4220;42.502;24.188;2023-05-24T01:22:39;95025.53;;;12.12;100.00
8366;BME280;4220;42.502;24.188;2023-05-24T01:25:14;95017.47;;;12.18;100.00
8366;BME280;4220;42.502;24.188;2023-05-24T01:27:45;95002.44;;;12.12;100.00
8366;BME280;4220;42.502;24.188;2023-05-24T01:30:13;95012.94;;;12.30;100.00
8366;BME280;4220;42.502;24.188;2023-05-24T01:32:40;95026.34;;;12.12;100.00
8366;BME280;4220;42.502;24.188;2023-05-24T01:35:08;95018.25;;;12.07;100.00
8366;BME280;4220;42.502;24.188;2023-05-24T01:37:35;95019.53;;;12.16;100.00
8366;BME280;4220;42.502;24.188;2023-05-24T01:40:03;95022.19;;;12.16;100.00
8366;BME280;4220;42.502;24.188;2023-05-24T01:42:34;95008.00;;;12.11;100.00
8366;BME280;4220;42.502;24.188;2023-05-24T01:45:08;95020.91;;;12.19;100.00
8366;BME280;4220;42.502;24.188;2023-05-24T01:47:46;94991.34;;;12.15;100.00
8366;BME280;4220;42.502;24.188;2023-05-24T01:50:24;95007.41;;;12.20;100.00
8366;BME280;4220;42.502;24.188;2023-05-24T01:52:53;95008.22;;;12.09;100.00
8366;BME280;4220;42.502;24.188;2023-05-24T01:55:21;95002.09;;;11.74;100.00
8366;BME280;4220;42.502;24.188;2023-05-24T01:57:49;95002.44;;;11.77;100.00
8366;BME280;4220;42.502;24.188;2023-05-24T02:00:19;95013.63;;;11.68;100.00
8366;BME280;4220;42.502;24.188;2023-05-24T02:02:47;95007.03;;;11.59;100.00
8366;BME280;4220;42.502;24.188;2023-05-24T02:05:14;95004.94;;;11.61;100.00
8366;BME280;4220;42.502;24.188;2023-05-24T02:07:41;95017.91;;;11.69;100.00
8366;BME280;4220;42.502;24.188;2023-05-24T02:10:08;95014.66;;;11.67;100.00
8366;BME280;4220;42.502;24.188;2023-05-24T02:12:35;95010.53;;;11.82;100.00
8366;BME280;4220;42.502;24.188;2023-05-24T02:15:02;95018.72;;;11.93;100.00
8366;BME280;4220;42.502;24.188;2023-05-24T02:17:32;95028.22;;;12.00;100.00
8366;BME280;4220;42.502;24.188;2023-05-24T02:20:00;95021.97;;;12.06;100.00
8366;BME280;4220;42.502;24.188;2023-05-24T02:22:27;95021.28;;;12.11;100.00
8366;BME280;4220;42.502;24.188;2023-05-24T02:24:54;95020.22;;;12.12;100.00
8366;BME280;4220;42.502;24.188;2023-05-24T02:27:21;95018.16;;;11.91;100.00
8366;BME280;4220;42.502;24.188;2023-05-24T02:29:48;95019.66;;;11.98;100.00
8366;BME280;4220;42.502;24.188;2023-05-24T02:32:15;95018.41;;;12.01;100.00
8366;BME280;4220;42.502;24.188;2023-05-24T02:34:43;95015.03;;;12.05;100.00
8366;BME280;4220;42.502;24.188;2023-05-24T02:37:10;95015.25;;;11.92;100.00
8366;BME280;4220;42.502;24.188;2023-05-24T02:39:39;95009.63;;;11.89;100.00
8366;BME280;4220;42.502;24.188;2023-05-24T02:42:07;95011.09;;;11.85;100.00
8366;BME280;4220;42.502;24.188;2023-05-24T02:44:35;94990.31;;;11.82;100.00
8366;BME280;4220;42.502;24.188;2023-05-24T02:47:03;95015.03;;;11.82;100.00
8366;BME280;4220;42.502;24.188;2023-05-24T02:49:29;95008.81;;;11.88;100.00
8366;BME280;4220;42.502;24.188;2023-05-24T02:51:58;95000.94;;;11.93;100.00
8366;BME280;4220;42.502;24.188;2023-05-24T02:54:25;95015.75;;;12.01;100.00
8366;BME280;4220;42.502;24.188;2023-05-24T02:56:52;95012.03;;;12.02;100.00
8366;BME280;4220;42.502;24.188;2023-05-24T02:59:21;95018.84;;;12.09;100.00
8366;BME280;4220;42.502;24.188;2023-05-24T03:01:48;95018.94;;;12.14;100.00
8366;BME280;4220;42.502;24.188;2023-05-24T03:04:15;95023.00;;;12.17;100.00
8366;BME280;4220;42.502;24.188;2023-05-24T03:06:42;95017.34;;;12.13;100.00
8366;BME280;4220;42.502;24.188;2023-05-24T03:09:10;95028.66;;;12.20;100.00
8366;BME280;4220;42.502;24.188;2023-05-24T03:11:37;95024.16;;;12.21;100.00
8366;BME280;4220;42.502;24.188;2023-05-24T03:14:04;95021.50;;;12.21;100.00
8366;BME280;4220;42.502;24.188;2023-05-24T03:16:34;95017.09;;;11.80;100.00
8366;BME280;4220;42.502;24.188;2023-05-24T03:19:01;95025.19;;;11.73;100.00
8366;BME280;4220;42.502;24.188;2023-05-24T03:21:28;95017.06;;;11.57;100.00
8366;BME280;4220;42.502;24.188;2023-05-24T03:23:55;95016.59;;;11.60;100.00
8366;BME280;4220;42.502;24.188;2023-05-24T03:26:23;95029.13;;;11.71;100.00
8366;BME280;4220;42.502;24.188;2023-05-24T03:28:51;95024.97;;;11.75;100.00
8366;BME280;4220;42.502;24.188;2023-05-24T03:31:18;95027.84;;;11.85;100.00
8366;BME280;4220;42.502;24.188;2023-05-24T03:33:48;95020.56;;;11.92;100.00
8366;BME280;4220;42.502;24.188;2023-05-24T03:36:15;95017.81;;;11.87;100.00
8366;BME280;4220;42.502;24.188;2023-05-24T03:38:42;94933.56;;;11.41;100.00
8366;BME280;4220;42.502;24.188;2023-05-24T03:41:09;95029.72;;;12.08;100.00
8366;BME280;4220;42.502;24.188;2023-05-24T03:43:37;95013.41;;;12.04;100.00
8366;BME280;4220;42.502;24.188;2023-05-24T03:46:04;95031.22;;;12.15;100.00
8366;BME280;4220;42.502;24.188;2023-05-24T03:48:31;95031.09;;;11.99;100.00
8366;BME280;4220;42.502;24.188;2023-05-24T03:50:58;95036.41;;;12.10;100.00
8366;BME280;4220;42.502;24.188;2023-05-24T03:53:25;94930.34;;;11.51;100.00
8366;BME280;4220;42.502;24.188;2023-05-24T03:55:52;95042.19;;;12.07;100.00
8366;BME280;4220;42.502;24.188;2023-05-24T03:58:18;95042.53;;;12.22;100.00
8366;BME280;4220;42.502;24.188;2023-05-24T04:00:48;95044.38;;;12.33;100.00
8366;BME280;4220;42.502;24.188;2023-05-24T04:03:15;95037.91;;;12.29;100.00
8366;BME280;4220;42.502;24.188;2023-05-24T04:05:44;95038.81;;;12.46;100.00
8366;BME280;4220;42.502;24.188;2023-05-24T04:08:11;95043.88;;;12.60;100.00
8366;BME280;4220;42.502;24.188;2023-05-24T04:10:39;95045.13;;;12.69;100.00
8366;BME280;4220;42.502;24.188;2023-05-24T04:13:07;95057.25;;;12.76;100.00
8366;BME280;4220;42.502;24.188;2023-05-24T04:15:34;95049.63;;;12.80;100.00
8366;BME280;4220;42.502;24.188;2023-05-24T04:18:04;95040.72;;;12.74;100.00
8366;BME280;4220;42.502;24.188;2023-05-24T04:20:31;95033.22;;;12.60;100.00
8366;BME280;4220;42.502;24.188;2023-05-24T04:22:58;95040.97;;;12.61;100.00
8366;BME280;4220;42.502;24.188;2023-05-24T04:25:25;95048.25;;;12.77;100.00
8366;BME280;4220;42.502;24.188;2023-05-24T04:27:52;95046.91;;;12.91;100.00
8366;BME280;4220;42.502;24.188;2023-05-24T04:30:20;95048.72;;;13.14;100.00
8366;BME280;4220;42.502;24.188;2023-05-24T04:32:47;95051.06;;;13.27;100.00
8366;BME280;4220;42.502;24.188;2023-05-24T04:35:16;95049.97;;;13.40;100.00
8366;BME280;4220;42.502;24.188;2023-05-24T04:37:43;95046.13;;;13.47;100.00
8366;BME280;4220;42.502;24.188;2023-05-24T04:40:10;95048.16;;;13.57;100.00
8366;BME280;4220;42.502;24.188;2023-05-24T04:42:37;95051.38;;;13.59;100.00
8366;BME280;4220;42.502;24.188;2023-05-24T04:45:05;95055.38;;;13.73;100.00
8366;BME280;4220;42.502;24.188;2023-05-24T04:47:32;95067.50;;;13.81;100.00
8366;BME280;4220;42.502;24.188;2023-05-24T04:49:59;95062.63;;;13.94;100.00
8366;BME280;4220;42.502;24.188;2023-05-24T04:52:27;95033.06;;;13.96;100.00
8366;BME280;4220;42.502;24.188;2023-05-24T04:54:54;95054.53;;;14.06;100.00
8366;BME280;4220;42.502;24.188;2023-05-24T04:57:22;95020.28;;;13.81;100.00
8366;BME280;4220;42.502;24.188;2023-05-24T04:59:49;95049.84;;;14.13;100.00
8366;BME280;4220;42.502;24.188;2023-05-24T05:02:16;95032.56;;;13.99;100.00
8366;BME280;4220;42.502;24.188;2023-05-24T05:04:43;95057.91;;;14.18;100.00
8366;BME280;4220;42.502;24.188;2023-05-24T05:07:10;95037.59;;;13.95;100.00
8366;BME280;4220;42.502;24.188;2023-05-24T05:09:38;95042.84;;;14.07;100.00
8366;BME280;4220;42.502;24.188;2023-05-24T05:12:05;95052.09;;;14.21;100.00
8366;BME280;4220;42.502;24.188;2023-05-24T05:14:34;95046.28;;;14.24;100.00
8366;BME280;4220;42.502;24.188;2023-05-24T05:17:01;95061.31;;;14.30;100.00
8366;BME280;4220;42.502;24.188;2023-05-24T05:19:27;95067.34;;;14.37;100.00
8366;BME280;4220;42.502;24.188;2023-05-24T05:21:55;95070.03;;;14.59;100.00
8366;BME280;4220;42.502;24.188;2023-05-24T05:24:21;95073.81;;;14.84;100.00
8366;BME280;4220;42.502;24.188;2023-05-24T05:26:50;95070.09;;;15.07;100.00
8366;BME280;4220;42.502;24.188;2023-05-24T05:29:16;95075.56;;;15.17;100.00
8366;BME280;4220;42.502;24.188;2023-05-24T05:31:43;95070.19;;;15.39;100.00
8366;BME280;4220;42.502;24.188;2023-05-24T05:34:10;95071.91;;;15.45;100.00
8366;BME280;4220;42.502;24.188;2023-05-24T05:36:37;95082.75;;;15.60;100.00
8366;BME280;4220;42.502;24.188;2023-05-24T05:39:05;95081.72;;;15.66;100.00
8366;BME280;4220;42.502;24.188;2023-05-24T05:41:35;95049.31;;;15.57;100.00
8366;BME280;4220;42.502;24.188;2023-05-24T05:44:04;95074.16;;;15.85;100.00
8366;BME280;4220;42.502;24.188;2023-05-24T05:46:31;95085.38;;;16.13;100.00
8366;BME280;4220;42.502;24.188;2023-05-24T05:48:58;95091.03;;;16.22;100.00
8366;BME280;4220;42.502;24.188;2023-05-24T05:51:25;95079.59;;;16.31;100.00
8366;BME280;4220;42.502;24.188;2023-05-24T05:53:51;95044.03;;;16.31;100.00
8366;BME280;4220;42.502;24.188;2023-05-24T05:56:18;95061.38;;;16.60;100.00
8366;BME280;4220;42.502;24.188;2023-05-24T05:58:45;95088.56;;;16.89;100.00
8366;BME280;4220;42.502;24.188;2023-05-24T06:01:14;95085.94;;;16.99;100.00
8366;BME280;4220;42.502;24.188;2023-05-24T06:03:41;95072.56;;;17.04;100.00
8366;BME280;4220;42.502;24.188;2023-05-24T06:06:08;95097.88;;;17.33;100.00
8366;BME280;4220;42.502;24.188;2023-05-24T06:08:35;95080.47;;;17.36;100.00
8366;BME280;4220;42.502;24.188;2023-05-24T06:11:02;95099.84;;;17.58;100.00
8366;BME280;4220;42.502;24.188;2023-05-24T06:13:29;95092.38;;;17.70;100.00
8366;BME280;4220;42.502;24.188;2023-05-24T06:15:57;95094.56;;;17.88;100.00
8366;BME280;4220;42.502;24.188;2023-05-24T06:18:26;95080.06;;;17.94;100.00
8366;BME280;4220;42.502;24.188;2023-05-24T06:20:55;95095.66;;;18.12;100.00
8366;BME280;4220;42.502;24.188;2023-05-24T06:23:22;94998.19;;;17.51;100.00
8366;BME280;4220;42.502;24.188;2023-05-24T06:25:48;95097.53;;;18.27;100.00
8366;BME280;4220;42.502;24.188;2023-05-24T06:28:15;95075.53;;;18.20;100.00
8366;BME280;4220;42.502;24.188;2023-05-24T06:30:42;95110.44;;;18.45;100.00
8366;BME280;4220;42.502;24.188;2023-05-24T06:33:09;95108.84;;;18.54;100.00
8366;BME280;4220;42.502;24.188;2023-05-24T06:35:37;95102.88;;;18.67;100.00
8366;BME280;4220;42.502;24.188;2023-05-24T06:38:04;95095.38;;;18.84;100.00
8366;BME280;4220;42.502;24.188;2023-05-24T06:40:31;95106.84;;;19.05;100.00
8366;BME280;4220;42.502;24.188;2023-05-24T06:42:58;95111.38;;;19.20;100.00
8366;BME280;4220;42.502;24.188;2023-05-24T06:45:25;95083.66;;;19.19;100.00
8366;BME280;4220;42.502;24.188;2023-05-24T06:47:52;95069.69;;;19.17;97.64
8366;BME280;4220;42.502;24.188;2023-05-24T06:50:19;95094.63;;;19.48;98.62
8366;BME280;4220;42.502;24.188;2023-05-24T06:52:48;95098.84;;;19.59;94.98
8366;BME280;4220;42.502;24.188;2023-05-24T06:55:15;95085.41;;;19.59;93.86
8366;BME280;4220;42.502;24.188;2023-05-24T06:57:42;95108.94;;;19.87;92.82
8366;BME280;4220;42.502;24.188;2023-05-24T07:00:09;95106.94;;;20.03;92.32
8366;BME280;4220;42.502;24.188;2023-05-24T07:02:37;95109.38;;;20.04;92.82
8366;BME280;4220;42.502;24.188;2023-05-24T07:05:05;95109.31;;;20.14;92.30
8366;BME280;4220;42.502;24.188;2023-05-24T07:07:36;95111.91;;;20.25;91.30
8366;BME280;4220;42.502;24.188;2023-05-24T07:10:06;95068.88;;;20.19;87.61
8366;BME280;4220;42.502;24.188;2023-05-24T07:12:35;95101.72;;;20.55;87.14
8366;BME280;4220;42.502;24.188;2023-05-24T07:15:02;95102.91;;;20.73;84.29
8366;BME280;4220;42.502;24.188;2023-05-24T07:17:29;95076.88;;;20.63;81.66
8366;BME280;4220;42.502;24.188;2023-05-24T07:19:56;95114.53;;;20.97;77.68
8366;BME280;4220;42.502;24.188;2023-05-24T07:22:23;95108.63;;;20.95;76.28
8366;BME280;4220;42.502;24.188;2023-05-24T07:24:51;95110.75;;;20.98;74.49
8366;BME280;4220;42.502;24.188;2023-05-24T07:27:19;95103.69;;;21.02;74.87
8366;BME280;4220;42.502;24.188;2023-05-24T07:29:47;95112.09;;;21.24;75.30
8366;BME280;4220;42.502;24.188;2023-05-24T07:32:14;95113.31;;;21.37;74.95
8366;BME280;4220;42.502;24.188;2023-05-24T07:34:41;95093.16;;;21.29;75.34
8366;BME280;4220;42.502;24.188;2023-05-24T07:37:08;95113.97;;;21.47;73.58
8366;BME280;4220;42.502;24.188;2023-05-24T07:39:35;95114.97;;;21.57;73.81
8366;BME280;4220;42.502;24.188;2023-05-24T07:42:02;95112.72;;;21.64;73.67
8366;BME280;4220;42.502;24.188;2023-05-24T07:44:31;95105.06;;;21.71;73.24
8366;BME280;4220;42.502;24.188;2023-05-24T07:46:58;95124.53;;;21.91;74.51
8366;BME280;4220;42.502;24.188;2023-05-24T07:49:26;95122.91;;;22.09;71.04
8366;BME280;4220;42.502;24.188;2023-05-24T07:51:53;95123.13;;;22.12;73.56
8366;BME280;4220;42.502;24.188;2023-05-24T07:54:23;95123.56;;;22.20;74.57
8366;BME280;4220;42.502;24.188;2023-05-24T07:56:50;95103.50;;;22.07;73.32
8366;BME280;4220;42.502;24.188;2023-05-24T07:59:17;95126.63;;;22.13;72.04
8366;BME280;4220;42.502;24.188;2023-05-24T08:01:46;95118.88;;;22.06;71.60
8366;BME280;4220;42.502;24.188;2023-05-24T08:04:13;95116.75;;;21.85;73.08
8366;BME280;4220;42.502;24.188;2023-05-24T08:06:40;95100.56;;;21.85;73.80
8366;BME280;4220;42.502;24.188;2023-05-24T08:09:07;95111.72;;;21.97;73.07
8366;BME280;4220;42.502;24.188;2023-05-24T08:11:34;95131.22;;;22.12;73.24
8366;BME280;4220;42.502;24.188;2023-05-24T08:14:01;95129.28;;;22.18;72.19
8366;BME280;4220;42.502;24.188;2023-05-24T08:16:28;95080.00;;;21.89;71.62
8366;BME280;4220;42.502;24.188;2023-05-24T08:18:56;95136.53;;;22.36;76.90
8366;BME280;4220;42.502;24.188;2023-05-24T08:21:23;95144.94;;;22.35;70.72
8366;BME280;4220;42.502;24.188;2023-05-24T08:23:50;95126.50;;;22.23;69.74
8366;BME280;4220;42.502;24.188;2023-05-24T08:26:18;95106.41;;;22.10;70.80
8366;BME280;4220;42.502;24.188;2023-05-24T08:28:46;95142.09;;;22.26;69.77
8366;BME280;4220;42.502;24.188;2023-05-24T08:31:13;95142.09;;;22.26;70.95
8366;BME280;4220;42.502;24.188;2023-05-24T08:33:40;95117.56;;;22.04;69.40
8366;BME280;4220;42.502;24.188;2023-05-24T08:36:09;95116.19;;;22.06;69.28
8366;BME280;4220;42.502;24.188;2023-05-24T08:38:36;95141.09;;;22.22;69.66
8366;BME280;4220;42.502;24.188;2023-05-24T08:41:05;95135.59;;;22.27;70.08
8366;BME280;4220;42.502;24.188;2023-05-24T08:43:32;95148.25;;;22.50;69.08
8366;BME280;4220;42.502;24.188;2023-05-24T08:46:01;95155.91;;;22.62;69.79
8366;BME280;4220;42.502;24.188;2023-05-24T08:48:29;95124.03;;;22.59;69.98
8366;BME280;4220;42.502;24.188;2023-05-24T08:50:56;95149.38;;;22.82;69.95
8366;BME280;4220;42.502;24.188;2023-05-24T08:53:25;95152.50;;;22.89;70.66
8366;BME280;4220;42.502;24.188;2023-05-24T08:55:53;95137.19;;;22.98;70.72
8366;BME280;4220;42.502;24.188;2023-05-24T08:58:20;95153.84;;;23.18;71.15
8366;BME280;4220;42.502;24.188;2023-05-24T09:00:47;95155.66;;;23.23;70.49
8366;BME280;4220;42.502;24.188;2023-05-24T09:03:15;95144.25;;;23.26;70.12
8366;BME280;4220;42.502;24.188;2023-05-24T09:05:43;95153.19;;;23.40;69.80
8366;BME280;4220;42.502;24.188;2023-05-24T09:08:10;95133.47;;;23.53;71.31
8366;BME280;4220;42.502;24.188;2023-05-24T09:10:39;95155.28;;;23.97;72.87
8366;BME280;4220;42.502;24.188;2023-05-24T09:13:06;95152.94;;;24.32;69.19
8366;BME280;4220;42.502;24.188;2023-05-24T09:15:34;95158.13;;;24.42;66.12
8366;BME280;4220;42.502;24.188;2023-05-24T09:18:01;95159.38;;;24.58;65.54
8366;BME280;4220;42.502;24.188;2023-05-24T09:20:29;95169.97;;;24.68;64.98
8366;BME280;4220;42.502;24.188;2023-05-24T09:22:56;95135.19;;;24.26;62.49
8366;BME280;4220;42.502;24.188;2023-05-24T09:25:27;95165.09;;;24.34;61.98
8366;BME280;4220;42.502;24.188;2023-05-24T09:27:55;95154.09;;;24.17;61.41
8366;BME280;4220;42.502;24.188;2023-05-24T09:30:22;95142.13;;;24.04;61.81
8366;BME280;4220;42.502;24.188;2023-05-24T09:32:56;95157.66;;;24.26;61.70
8366;BME280;4220;42.502;24.188;2023-05-24T09:35:23;95138.09;;;24.29;61.00
8366;BME280;4220;42.502;24.188;2023-05-24T09:37:53;95158.38;;;24.54;60.89
8366;BME280;4220;42.502;24.188;2023-05-24T09:40:22;95146.94;;;24.57;62.09
8366;BME280;4220;42.502;24.188;2023-05-24T09:43:02;95160.91;;;24.86;62.29
8366;BME280;4220;42.502;24.188;2023-05-24T09:45:30;95130.19;;;24.77;63.00
8366;BME280;4220;42.502;24.188;2023-05-24T09:47:57;95157.00;;;25.01;63.46
8366;BME280;4220;42.502;24.188;2023-05-24T09:50:25;95141.66;;;24.96;62.97
8366;BME280;4220;42.502;24.188;2023-05-24T09:52:52;95158.81;;;25.14;63.85
8366;BME280;4220;42.502;24.188;2023-05-24T09:55:21;95096.63;;;24.73;63.05
8366;BME280;4220;42.502;24.188;2023-05-24T09:57:50;95143.66;;;25.13;63.52
8366;BME280;4220;42.502;24.188;2023-05-24T10:00:22;95128.69;;;24.49;61.47
8366;BME280;4220;42.502;24.188;2023-05-24T10:02:59;95147.31;;;24.28;61.26
8366;BME280;4220;42.502;24.188;2023-05-24T10:05:27;95162.44;;;24.43;61.32
8366;BME280;4220;42.502;24.188;2023-05-24T10:07:55;95164.72;;;24.85;61.76
8366;BME280;4220;42.502;24.188;2023-05-24T10:10:25;95172.88;;;25.38;59.30
8366;BME280;4220;42.502;24.188;2023-05-24T10:12:54;95153.50;;;25.62;59.11
8366;BME280;4220;42.502;24.188;2023-05-24T10:15:23;95170.19;;;25.47;65.08
8366;BME280;4220;42.502;24.188;2023-05-24T10:17:50;95168.47;;;25.28;67.32
8366;BME280;4220;42.502;24.188;2023-05-24T10:20:17;95181.59;;;25.04;64.03
8366;BME280;4220;42.502;24.188;2023-05-24T10:22:46;95144.88;;;24.62;64.88
8366;BME280;4220;42.502;24.188;2023-05-24T10:25:20;95095.28;;;24.18;64.73
8366;BME280;4220;42.502;24.188;2023-05-24T10:27:49;95174.47;;;24.50;64.45
8366;BME280;4220;42.502;24.188;2023-05-24T10:30:24;95201.66;;;24.10;66.89
8366;BME280;4220;42.502;24.188;2023-05-24T10:32:54;95154.13;;;23.03;68.56
8366;BME280;4220;42.502;24.188;2023-05-24T10:35:22;95177.09;;;22.18;73.26
8366;BME280;4220;42.502;24.188;2023-05-24T10:37:52;95164.63;;;21.56;76.99
8366;BME280;4220;42.502;24.188;2023-05-24T10:40:21;95159.09;;;21.18;76.46
8366;BME280;4220;42.502;24.188;2023-05-24T10:42:50;95168.03;;;21.14;80.92
8366;BME280;4220;42.502;24.188;2023-05-24T10:45:32;95116.56;;;20.53;84.76
8366;BME280;4220;42.502;24.188;2023-05-24T10:48:01;95166.28;;;20.37;88.58
8366;BME280;4220;42.502;24.188;2023-05-24T10:50:33;95159.44;;;20.00;94.44
8366;BME280;4220;42.502;24.188;2023-05-24T10:53:19;95151.25;;;19.77;100.00
8366;BME280;4220;42.502;24.188;2023-05-24T10:55:53;95152.47;;;19.45;100.00
8366;BME280;4220;42.502;24.188;2023-05-24T10:58:25;95147.91;;;19.31;100.00
8366;BME280;4220;42.502;24.188;2023-05-24T11:00:56;95128.81;;;19.32;100.00
8366;BME280;4220;42.502;24.188;2023-05-24T11:03:23;95121.78;;;19.41;100.00
8366;BME280;4220;42.502;24.188;2023-05-24T11:05:51;95143.44;;;19.80;100.00
8366;BME280;4220;42.502;24.188;2023-05-24T11:08:24;95132.13;;;20.22;100.00
8366;BME280;4220;42.502;24.188;2023-05-24T11:11:01;95143.00;;;20.51;97.77
8366;BME280;4220;42.502;24.188;2023-05-24T11:13:30;95117.63;;;20.52;92.70
8366;BME280;4220;42.502;24.188;2023-05-24T11:15:58;95126.66;;;20.71;87.75
8366;BME280;4220;42.502;24.188;2023-05-24T11:18:26;95111.16;;;20.53;86.26
8366;BME280;4220;42.502;24.188;2023-05-24T11:20:53;95149.16;;;20.85;87.07
8366;BME280;4220;42.502;24.188;2023-05-24T11:23:20;95146.69;;;20.88;87.66
8366;BME280;4220;42.502;24.188;2023-05-24T11:25:48;95120.91;;;20.77;85.92
8366;BME280;4220;42.502;24.188;2023-05-24T11:28:16;95064.25;;;20.59;83.76
8366;BME280;4220;42.502;24.188;2023-05-24T11:30:45;95132.31;;;21.27;84.00
8366;BME280;4220;42.502;24.188;2023-05-24T11:33:17;95130.69;;;21.92;81.47
8366;BME280;4220;42.502;24.188;2023-05-24T11:35:44;95136.19;;;22.43;76.02
8366;BME280;4220;42.502;24.188;2023-05-24T11:38:12;95122.72;;;22.75;73.90
8366;BME280;4220;42.502;24.188;2023-05-24T11:40:40;95128.06;;;23.07;81.24
8366;BME280;4220;42.502;24.188;2023-05-24T11:43:12;95132.06;;;23.56;78.88
8366;BME280;4220;42.502;24.188;2023-05-24T11:45:41;95101.44;;;23.82;76.30
8366;BME280;4220;42.502;24.188;2023-05-24T11:48:08;95125.13;;;24.26;75.72
8366;BME280;4220;42.502;24.188;2023-05-24T11:50:40;95118.56;;;24.63;72.80
8366;BME280;4220;42.502;24.188;2023-05-24T11:53:09;95134.47;;;25.00;69.38
8366;BME280;4220;42.502;24.188;2023-05-24T11:55:36;95127.03;;;25.06;66.42
8366;BME280;4220;42.502;24.188;2023-05-24T11:58:06;95127.53;;;25.16;64.18
8366;BME280;4220;42.502;24.188;2023-05-24T12:00:36;95105.91;;;25.33;59.76
8366;BME280;4220;42.502;24.188;2023-05-24T12:03:03;95139.19;;;25.87;58.96
8366;BME280;4220;42.502;24.188;2023-05-24T12:05:33;95126.63;;;25.60;59.23
8366;BME280;4220;42.502;24.188;2023-05-24T12:08:04;95011.53;;;25.30;57.40
8366;BME280;4220;42.502;24.188;2023-05-24T12:10:32;95126.81;;;26.29;59.56
8366;BME280;4220;42.502;24.188;2023-05-24T12:13:00;95133.44;;;25.88;55.50
8366;BME280;4220;42.502;24.188;2023-05-24T12:15:28;95127.94;;;25.71;59.79
8366;BME280;4220;42.502;24.188;2023-05-24T12:17:55;95123.75;;;25.57;58.18
8366;BME280;4220;42.502;24.188;2023-05-24T12:20:22;95122.84;;;25.78;60.22
8366;BME280;4220;42.502;24.188;2023-05-24T12:22:50;95092.19;;;25.39;60.21
8366;BME280;4220;42.502;24.188;2023-05-24T12:25:19;95109.66;;;25.46;61.26
8366;BME280;4220;42.502;24.188;2023-05-24T12:27:46;95123.31;;;25.32;63.76
8366;BME280;4220;42.502;24.188;2023-05-24T12:30:14;95118.97;;;25.23;63.31
8366;BME280;4220;42.502;24.188;2023-05-24T12:32:46;95132.44;;;25.37;63.16
8366;BME280;4220;42.502;24.188;2023-05-24T12:35:14;95096.75;;;24.68;67.89
8366;BME280;4220;42.502;24.188;2023-05-24T12:37:42;95103.66;;;23.80;71.95
8366;BME280;4220;42.502;24.188;2023-05-24T12:40:16;95104.66;;;23.16;73.84
8366;BME280;4220;42.502;24.188;2023-05-24T12:42:49;95100.13;;;22.98;75.28
8366;BME280;4220;42.502;24.188;2023-05-24T12:45:16;95103.06;;;22.69;76.42
8366;BME280;4220;42.502;24.188;2023-05-24T12:47:48;95088.94;;;22.40;77.72
8366;BME280;4220;42.502;24.188;2023-05-24T12:50:16;95087.97;;;22.31;80.68
8366;BME280;4220;42.502;24.188;2023-05-24T12:52:43;95085.19;;;22.36;81.13
8366;BME280;4220;42.502;24.188;2023-05-24T12:55:11;95078.72;;;22.37;80.48
8366;BME280;4220;42.502;24.188;2023-05-24T12:57:38;95071.41;;;22.38;78.58
8366;BME280;4220;42.502;24.188;2023-05-24T13:00:08;95070.63;;;22.69;65.21
8366;BME280;4220;42.502;24.188;2023-05-24T13:02:36;95070.06;;;23.13;64.78
8366;BME280;4220;42.502;24.188;2023-05-24T13:05:04;95070.72;;;23.51;63.55
8366;BME280;4220;42.502;24.188;2023-05-24T13:07:31;95074.97;;;23.79;75.02
8366;BME280;4220;42.502;24.188;2023-05-24T13:09:58;95070.19;;;23.98;79.12
8366;BME280;4220;42.502;24.188;2023-05-24T13:12:25;95074.50;;;23.99;79.18